sensor_id;sensor_type;location;lat;lon;timestamp;pressure;altitude;pressure_sealevel;temperature;humidity
46015;BME280;36844;51.898;-0.874;2023-07-22T00:00:47;100265.94;;;20.00;
46015;BME280;36844;51.898;-0.874;2023-07-22T00:03:13;100267.47;;;20.01;
46015;BME280;36844;51.898;-0.874;2023-07-22T00:05:39;100264.88;;;19.94;
46015;BME280;36844;51.898;-0.874;2023-07-22T00:08:05;100245.66;;;19.88;
46015;BME280;36844;51.898;-0.874;2023-07-22T00:10:30;100251.44;;;19.90;
46015;BME280;36844;51.898;-0.874;2023-07-22T00:12:55;100251.00;;;19.92;
46015;BME280;36844;51.898;-0.874;2023-07-22T00:15:21;100264.41;;;19.99;
46015;BME280;36844;51.898;-0.874;2023-07-22T00:17:49;100248.72;;;19.90;
46015;BME280;36844;51.898;-0.874;2023-07-22T00:20:14;100226.47;;;19.83;
46015;BME280;36844;51.898;-0.874;2023-07-22T00:22:40;100257.13;;;19.96;
46015;BME280;36844;51.898;-0.874;2023-07-22T00:25:10;100246.78;;;19.91;
46015;BME280;36844;51.898;-0.874;2023-07-22T00:27:40;100249.16;;;19.89;
46015;BME280;36844;51.898;-0.874;2023-07-22T00:30:09;100239.16;;;19.86;
46015;BME280;36844;51.898;-0.874;2023-07-22T00:32:35;100259.81;;;19.96;
46015;BME280;36844;51.898;-0.874;2023-07-22T00:35:05;100246.44;;;19.89;
46015;BME280;36844;51.898;-0.874;2023-07-22T00:37:31;100230.72;;;19.84;
46015;BME280;36844;51.898;-0.874;2023-07-22T00:39:57;100239.59;;;19.84;
46015;BME280;36844;51.898;-0.874;2023-07-22T00:42:22;100221.19;;;19.75;
46015;BME280;36844;51.898;-0.874;2023-07-22T00:44:48;100239.91;;;19.86;
46015;BME280;36844;51.898;-0.874;2023-07-22T00:47:13;100227.66;;;19.82;
46015;BME280;36844;51.898;-0.874;2023-07-22T00:49:39;100231.88;;;19.83;
46015;BME280;36844;51.898;-0.874;2023-07-22T00:52:04;100227.22;;;19.83;
46015;BME280;36844;51.898;-0.874;2023-07-22T00:54:30;100239.09;;;19.89;
46015;BME280;36844;51.898;-0.874;2023-07-22T00:56:57;100240.19;;;19.92;
46015;BME280;36844;51.898;-0.874;2023-07-22T00:59:23;100224.13;;;19.85;
46015;BME280;36844;51.898;-0.874;2023-07-22T01:01:49;100209.09;;;19.84;
46015;BME280;36844;51.898;-0.874;2023-07-22T01:04:15;100195.78;;;19.73;
46015;BME280;36844;51.898;-0.874;2023-07-22T01:06:43;100209.09;;;19.84;
46015;BME280;36844;51.898;-0.874;2023-07-22T01:09:09;100211.78;;;19.84;
46015;BME280;36844;51.898;-0.874;2023-07-22T01:11:34;100214.00;;;19.89;
46015;BME280;36844;51.898;-0.874;2023-07-22T01:14:00;100201.31;;;19.86;
46015;BME280;36844;51.898;-0.874;2023-07-22T01:16:27;100191.00;;;19.81;
46015;BME280;36844;51.898;-0.874;2023-07-22T01:18:53;100200.13;;;19.87;
46015;BME280;36844;51.898;-0.874;2023-07-22T01:21:23;100184.41;;;19.82;
46015;BME280;36844;51.898;-0.874;2023-07-22T01:23:49;100171.06;;;19.71;
46015;BME280;36844;51.898;-0.874;2023-07-22T01:26:15;100175.94;;;19.79;
46015;BME280;36844;51.898;-0.874;2023-07-22T01:28:40;100159.59;;;19.67;
46015;BME280;36844;51.898;-0.874;2023-07-22T01:31:06;100170.63;;;19.76;
46015;BME280;36844;51.898;-0.874;2023-07-22T01:33:31;100173.69;;;19.74;
46015;BME280;36844;51.898;-0.874;2023-07-22T01:35:57;100165.97;;;19.76;
46015;BME280;36844;51.898;-0.874;2023-07-22T01:38:22;100173.94;;;19.84;
46015;BME280;36844;51.898;-0.874;2023-07-22T01:40:48;100170.19;;;19.77;
46015;BME280;36844;51.898;-0.874;2023-07-22T01:43:13;100159.09;;;19.72;
46015;BME280;36844;51.898;-0.874;2023-07-22T01:45:38;100180.59;;;19.79;
46015;BME280;36844;51.898;-0.874;2023-07-22T01:48:05;100176.03;;;19.76;
46015;BME280;36844;51.898;-0.874;2023-07-22T01:50:31;100155.69;;;19.68;
46015;BME280;36844;51.898;-0.874;2023-07-22T01:52:56;100156.47;;;19.68;
46015;BME280;36844;51.898;-0.874;2023-07-22T01:55:21;100162.56;;;19.72;
46015;BME280;36844;51.898;-0.874;2023-07-22T01:57:47;100172.91;;;19.77;
46015;BME280;36844;51.898;-0.874;2023-07-22T02:00:13;100165.28;;;19.72;
46015;BME280;36844;51.898;-0.874;2023-07-22T02:02:41;100174.03;;;19.80;
46015;BME280;36844;51.898;-0.874;2023-07-22T02:05:06;100162.91;;;19.74;
46015;BME280;36844;51.898;-0.874;2023-07-22T02:07:32;100160.13;;;19.78;
46015;BME280;36844;51.898;-0.874;2023-07-22T02:09:57;100154.47;;;19.72;
46015;BME280;36844;51.898;-0.874;2023-07-22T02:12:23;100156.31;;;19.75;
46015;BME280;36844;51.898;-0.874;2023-07-22T02:14:48;100154.47;;;19.72;
46015;BME280;36844;51.898;-0.874;2023-07-22T02:17:13;100149.91;;;19.69;
46015;BME280;36844;51.898;-0.874;2023-07-22T02:19:39;100147.97;;;19.70;
46015;BME280;36844;51.898;-0.874;2023-07-22T02:22:04;100150.69;;;19.70;
46015;BME280;36844;51.898;-0.874;2023-07-22T02:24:30;100148.34;;;19.68;
46015;BME280;36844;51.898;-0.874;2023-07-22T02:26:55;100150.22;;;19.71;
46015;BME280;36844;51.898;-0.874;2023-07-22T02:29:21;100131.44;;;19.64;
46015;BME280;36844;51.898;-0.874;2023-07-22T02:31:46;100144.50;;;19.69;
46015;BME280;36844;51.898;-0.874;2023-07-22T02:34:11;100128.75;;;19.64;
46015;BME280;36844;51.898;-0.874;2023-07-22T02:36:37;100136.78;;;19.68;
46015;BME280;36844;51.898;-0.874;2023-07-22T02:39:02;100145.19;;;19.73;
46015;BME280;36844;51.898;-0.874;2023-07-22T02:41:28;100122.25;;;19.62;
46015;BME280;36844;51.898;-0.874;2023-07-22T02:43:53;100138.56;;;19.74;
46015;BME280;36844;51.898;-0.874;2023-07-22T02:46:19;100139.03;;;19.73;
46015;BME280;36844;51.898;-0.874;2023-07-22T02:48:44;100135.56;;;19.72;
46015;BME280;36844;51.898;-0.874;2023-07-22T02:51:10;100118.00;;;19.61;
46015;BME280;36844;51.898;-0.874;2023-07-22T02:53:36;100132.56;;;19.67;
46015;BME280;36844;51.898;-0.874;2023-07-22T02:56:02;100139.41;;;19.71;
46015;BME280;36844;51.898;-0.874;2023-07-22T02:58:28;100123.75;;;19.63;
46015;BME280;36844;51.898;-0.874;2023-07-22T03:00:53;100121.47;;;19.61;
46015;BME280;36844;51.898;-0.874;2023-07-22T03:03:19;100124.53;;;19.63;
46015;BME280;36844;51.898;-0.874;2023-07-22T03:05:44;100119.88;;;19.64;
46015;BME280;36844;51.898;-0.874;2023-07-22T03:08:10;100108.47;;;19.56;
46015;BME280;36844;51.898;-0.874;2023-07-22T03:10:35;100122.50;;;19.67;
46015;BME280;36844;51.898;-0.874;2023-07-22T03:13:00;100124.03;;;19.68;
46015;BME280;36844;51.898;-0.874;2023-07-22T03:15:26;100108.03;;;19.58;
46015;BME280;36844;51.898;-0.874;2023-07-22T03:17:53;100079.00;;;19.42;
46015;BME280;36844;51.898;-0.874;2023-07-22T03:20:19;100110.66;;;19.61;
46015;BME280;36844;51.898;-0.874;2023-07-22T03:22:45;100101.78;;;19.61;
46015;BME280;36844;51.898;-0.874;2023-07-22T03:25:11;100098.00;;;19.58;
46015;BME280;36844;51.898;-0.874;2023-07-22T03:27:37;100107.13;;;19.64;
46015;BME280;36844;51.898;-0.874;2023-07-22T03:30:04;100112.22;;;19.62;
46015;BME280;36844;51.898;-0.874;2023-07-22T03:32:31;100112.88;;;19.66;
46015;BME280;36844;51.898;-0.874;2023-07-22T03:34:57;100109.50;;;19.62;
46015;BME280;36844;51.898;-0.874;2023-07-22T03:37:22;100091.19;;;19.50;
46015;BME280;36844;51.898;-0.874;2023-07-22T03:39:48;100092.72;;;19.51;
46015;BME280;36844;51.898;-0.874;2023-07-22T03:42:13;100102.63;;;19.58;
46015;BME280;36844;51.898;-0.874;2023-07-22T03:44:38;100112.94;;;19.63;
46015;BME280;36844;51.898;-0.874;2023-07-22T03:47:05;100103.41;;;19.58;
46015;BME280;36844;51.898;-0.874;2023-07-22T03:49:31;100105.28;;;19.61;
46015;BME280;36844;51.898;-0.874;2023-07-22T03:51:56;100084.59;;;19.51;
46015;BME280;36844;51.898;-0.874;2023-07-22T03:54:21;100104.50;;;19.61;
46015;BME280;36844;51.898;-0.874;2023-07-22T03:56:47;100087.69;;;19.53;
46015;BME280;36844;51.898;-0.874;2023-07-22T03:59:12;100096.75;;;19.63;
46015;BME280;36844;51.898;-0.874;2023-07-22T04:01:37;100090.72;;;19.55;
46015;BME280;36844;51.898;-0.874;2023-07-22T04:04:03;100082.28;;;19.53;
46015;BME280;36844;51.898;-0.874;2023-07-22T04:06:28;100094.03;;;19.63;
46015;BME280;36844;51.898;-0.874;2023-07-22T04:08:53;100078.38;;;19.54;
46015;BME280;36844;51.898;-0.874;2023-07-22T04:11:19;100099.09;;;19.61;
46015;BME280;36844;51.898;-0.874;2023-07-22T04:13:44;100078.81;;;19.53;
46015;BME280;36844;51.898;-0.874;2023-07-22T04:16:09;100086.84;;;19.56;
46015;BME280;36844;51.898;-0.874;2023-07-22T04:18:35;100069.66;;;19.47;
46015;BME280;36844;51.898;-0.874;2023-07-22T04:21:00;100090.22;;;19.60;
46015;BME280;36844;51.898;-0.874;2023-07-22T04:23:26;100080.88;;;19.45;
46015;BME280;36844;51.898;-0.874;2023-07-22T04:25:52;100075.06;;;19.47;
46015;BME280;36844;51.898;-0.874;2023-07-22T04:28:17;100080.75;;;19.52;
46015;BME280;36844;51.898;-0.874;2023-07-22T04:30:42;100071.09;;;19.51;
46015;BME280;36844;51.898;-0.874;2023-07-22T04:33:08;100059.28;;;19.45;
46015;BME280;36844;51.898;-0.874;2023-07-22T04:35:40;100073.09;;;19.47;
46015;BME280;36844;51.898;-0.874;2023-07-22T04:38:06;100075.34;;;19.52;
46015;BME280;36844;51.898;-0.874;2023-07-22T04:40:31;100081.78;;;19.58;
46015;BME280;36844;51.898;-0.874;2023-07-22T04:42:57;100077.19;;;19.55;
46015;BME280;36844;51.898;-0.874;2023-07-22T04:45:23;100073.06;;;19.51;
46015;BME280;36844;51.898;-0.874;2023-07-22T04:47:51;100064.53;;;19.52;
46015;BME280;36844;51.898;-0.874;2023-07-22T04:50:17;100080.25;;;19.57;
46015;BME280;36844;51.898;-0.874;2023-07-22T04:52:46;100071.88;;;19.52;
46015;BME280;36844;51.898;-0.874;2023-07-22T04:55:11;100062.69;;;19.49;
46015;BME280;36844;51.898;-0.874;2023-07-22T04:57:41;100070.63;;;19.56;
46015;BME280;36844;51.898;-0.874;2023-07-22T05:00:08;100061.00;;;19.55;
46015;BME280;36844;51.898;-0.874;2023-07-22T05:02:39;100053.03;;;19.48;
46015;BME280;36844;51.898;-0.874;2023-07-22T05:05:05;100068.06;;;19.49;
46015;BME280;36844;51.898;-0.874;2023-07-22T05:07:30;100063.69;;;19.55;
46015;BME280;36844;51.898;-0.874;2023-07-22T05:09:55;100050.00;;;19.46;
46015;BME280;36844;51.898;-0.874;2023-07-22T05:12:21;100056.44;;;19.52;
46015;BME280;36844;51.898;-0.874;2023-07-22T05:14:46;100055.34;;;19.50;
46015;BME280;36844;51.898;-0.874;2023-07-22T05:17:11;100043.84;;;19.46;
46015;BME280;36844;51.898;-0.874;2023-07-22T05:19:37;100054.56;;;19.49;
46015;BME280;36844;51.898;-0.874;2023-07-22T05:22:02;100053.44;;;19.47;
46015;BME280;36844;51.898;-0.874;2023-07-22T05:24:28;100052.19;;;19.51;
46015;BME280;36844;51.898;-0.874;2023-07-22T05:26:53;100051.50;;;19.47;
46015;BME280;36844;51.898;-0.874;2023-07-22T05:29:19;100050.47;;;19.41;
46015;BME280;36844;51.898;-0.874;2023-07-22T05:31:44;100056.91;;;19.47;
46015;BME280;36844;51.898;-0.874;2023-07-22T05:34:10;100060.28;;;19.51;
46015;BME280;36844;51.898;-0.874;2023-07-22T05:36:35;100046.78;;;19.51;
46015;BME280;36844;51.898;-0.874;2023-07-22T05:39:00;100052.56;;;19.53;
46015;BME280;36844;51.898;-0.874;2023-07-22T05:41:26;100042.66;;;19.47;
46015;BME280;36844;51.898;-0.874;2023-07-22T05:43:51;100052.25;;;19.48;
46015;BME280;36844;51.898;-0.874;2023-07-22T05:46:16;100038.75;;;19.48;
46015;BME280;36844;51.898;-0.874;2023-07-22T05:48:42;100045.28;;;19.50;
46015;BME280;36844;51.898;-0.874;2023-07-22T05:51:07;100036.13;;;19.44;
46015;BME280;36844;51.898;-0.874;2023-07-22T05:53:32;100035.66;;;19.49;
46015;BME280;36844;51.898;-0.874;2023-07-22T05:55:58;100035.25;;;19.51;
46015;BME280;36844;51.898;-0.874;2023-07-22T05:58:24;100014.53;;;19.44;
46015;BME280;36844;51.898;-0.874;2023-07-22T06:00:49;100014.97;;;19.43;
46015;BME280;36844;51.898;-0.874;2023-07-22T06:03:16;100023.75;;;19.47;
46015;BME280;36844;51.898;-0.874;2023-07-22T06:05:42;100024.16;;;19.45;
46015;BME280;36844;51.898;-0.874;2023-07-22T06:08:07;100017.66;;;19.43;
46015;BME280;36844;51.898;-0.874;2023-07-22T06:10:32;100016.97;;;19.39;
46015;BME280;36844;51.898;-0.874;2023-07-22T06:12:58;100006.97;;;19.36;
46015;BME280;36844;51.898;-0.874;2023-07-22T06:15:23;100017.22;;;19.44;
46015;BME280;36844;51.898;-0.874;2023-07-22T06:17:48;100012.25;;;19.43;
46015;BME280;36844;51.898;-0.874;2023-07-22T06:20:14;100022.22;;;19.46;
46015;BME280;36844;51.898;-0.874;2023-07-22T06:22:39;100009.63;;;19.39;
46015;BME280;36844;51.898;-0.874;2023-07-22T06:25:05;100005.78;;;19.37;
46015;BME280;36844;51.898;-0.874;2023-07-22T06:27:31;99990.84;;;19.32;
46015;BME280;36844;51.898;-0.874;2023-07-22T06:29:56;100022.94;;;19.50;
46015;BME280;36844;51.898;-0.874;2023-07-22T06:32:23;99999.16;;;19.41;
46015;BME280;36844;51.898;-0.874;2023-07-22T06:34:48;99992.66;;;19.39;
46015;BME280;36844;51.898;-0.874;2023-07-22T06:37:14;100003.72;;;19.44;
46015;BME280;36844;51.898;-0.874;2023-07-22T06:39:39;100011.34;;;19.49;
46015;BME280;36844;51.898;-0.874;2023-07-22T06:42:04;99990.28;;;19.41;
46015;BME280;36844;51.898;-0.874;2023-07-22T06:44:30;99991.81;;;19.42;
46015;BME280;36844;51.898;-0.874;2023-07-22T06:46:55;99998.25;;;19.48;
46015;BME280;36844;51.898;-0.874;2023-07-22T06:49:21;99992.22;;;19.40;
46015;BME280;36844;51.898;-0.874;2023-07-22T06:51:47;99996.38;;;19.45;
46015;BME280;36844;51.898;-0.874;2023-07-22T06:54:12;99991.06;;;19.41;
46015;BME280;36844;51.898;-0.874;2023-07-22T06:56:37;100007.53;;;19.47;
46015;BME280;36844;51.898;-0.874;2023-07-22T06:59:03;100001.41;;;19.46;
46015;BME280;36844;51.898;-0.874;2023-07-22T07:01:28;99974.31;;;19.30;
46015;BME280;36844;51.898;-0.874;2023-07-22T07:03:53;99996.38;;;19.45;
46015;BME280;36844;51.898;-0.874;2023-07-22T07:06:19;100005.25;;;19.45;
46015;BME280;36844;51.898;-0.874;2023-07-22T07:08:44;99978.13;;;19.33;
46015;BME280;36844;51.898;-0.874;2023-07-22T07:11:09;99976.94;;;19.34;
46015;BME280;36844;51.898;-0.874;2023-07-22T07:13:34;99985.34;;;19.39;
46015;BME280;36844;51.898;-0.874;2023-07-22T07:16:23;99994.09;;;19.43;
46015;BME280;36844;51.898;-0.874;2023-07-22T07:18:49;99982.63;;;19.39;
46015;BME280;36844;51.898;-0.874;2023-07-22T07:21:16;99985.34;;;19.39;
46015;BME280;36844;51.898;-0.874;2023-07-22T07:23:41;99979.63;;;19.34;
46015;BME280;36844;51.898;-0.874;2023-07-22T07:26:06;99988.03;;;19.39;
46015;BME280;36844;51.898;-0.874;2023-07-22T07:28:32;99990.28;;;19.41;
46015;BME280;36844;51.898;-0.874;2023-07-22T07:30:57;99986.34;;;19.45;
46015;BME280;36844;51.898;-0.874;2023-07-22T07:33:22;99963.03;;;19.35;
46015;BME280;36844;51.898;-0.874;2023-07-22T07:35:47;99959.97;;;19.33;
46015;BME280;36844;51.898;-0.874;2023-07-22T07:38:13;99979.09;;;19.42;
46015;BME280;36844;51.898;-0.874;2023-07-22T07:40:38;99972.16;;;19.41;
46015;BME280;36844;51.898;-0.874;2023-07-22T07:43:04;99970.59;;;19.40;
46015;BME280;36844;51.898;-0.874;2023-07-22T07:45:29;99976.00;;;19.40;
46015;BME280;36844;51.898;-0.874;2023-07-22T07:47:55;99958.94;;;19.27;
46015;BME280;36844;51.898;-0.874;2023-07-22T07:50:20;99961.03;;;19.39;
46015;BME280;36844;51.898;-0.874;2023-07-22T07:52:46;99974.09;;;19.41;
46015;BME280;36844;51.898;-0.874;2023-07-22T07:55:11;99969.13;;;19.39;
46015;BME280;36844;51.898;-0.874;2023-07-22T07:57:37;99971.31;;;19.44;
46015;BME280;36844;51.898;-0.874;2023-07-22T08:00:02;99958.38;;;19.36;
46015;BME280;36844;51.898;-0.874;2023-07-22T08:02:28;99957.63;;;19.35;
46015;BME280;36844;51.898;-0.874;2023-07-22T08:04:53;99953.75;;;19.36;
46015;BME280;36844;51.898;-0.874;2023-07-22T08:07:19;99971.22;;;19.48;
46015;BME280;36844;51.898;-0.874;2023-07-22T08:09:47;99961.34;;;19.41;
46015;BME280;36844;51.898;-0.874;2023-07-22T08:12:14;99963.72;;;19.39;
46015;BME280;36844;51.898;-0.874;2023-07-22T08:14:39;99946.94;;;19.28;
46015;BME280;36844;51.898;-0.874;2023-07-22T08:17:05;99961.28;;;19.45;
46015;BME280;36844;51.898;-0.874;2023-07-22T08:19:30;99964.75;;;19.45;
46015;BME280;36844;51.898;-0.874;2023-07-22T08:21:55;99962.81;;;19.46;
46015;BME280;36844;51.898;-0.874;2023-07-22T08:24:21;99938.84;;;19.28;
46015;BME280;36844;51.898;-0.874;2023-07-22T08:26:46;99969.31;;;19.48;
46015;BME280;36844;51.898;-0.874;2023-07-22T08:29:12;99965.06;;;19.47;
46015;BME280;36844;51.898;-0.874;2023-07-22T08:31:37;99964.31;;;19.47;
46015;BME280;36844;51.898;-0.874;2023-07-22T08:34:03;99954.78;;;19.42;
46015;BME280;36844;51.898;-0.874;2023-07-22T08:36:28;99946.69;;;19.42;
46015;BME280;36844;51.898;-0.874;2023-07-22T08:38:53;99956.97;;;19.47;
46015;BME280;36844;51.898;-0.874;2023-07-22T08:41:19;99961.53;;;19.50;
46015;BME280;36844;51.898;-0.874;2023-07-22T08:43:46;99944.81;;;19.39;
46015;BME280;36844;51.898;-0.874;2023-07-22T08:46:12;99948.19;;;19.43;
46015;BME280;36844;51.898;-0.874;2023-07-22T08:48:41;99945.16;;;19.41;
46015;BME280;36844;51.898;-0.874;2023-07-22T08:51:10;99959.53;;;19.54;
46015;BME280;36844;51.898;-0.874;2023-07-22T08:53:38;99945.69;;;19.52;
46015;BME280;36844;51.898;-0.874;2023-07-22T08:56:04;99956.84;;;19.54;
46015;BME280;36844;51.898;-0.874;2023-07-22T08:58:29;99935.72;;;19.49;
46015;BME280;36844;51.898;-0.874;2023-07-22T09:00:55;99945.34;;;19.50;
46015;BME280;36844;51.898;-0.874;2023-07-22T09:03:21;99931.16;;;19.46;
46015;BME280;36844;51.898;-0.874;2023-07-22T09:05:47;99933.34;;;19.51;
46015;BME280;36844;51.898;-0.874;2023-07-22T09:08:13;99947.16;;;19.57;
46015;BME280;36844;51.898;-0.874;2023-07-22T09:10:38;99938.75;;;19.51;
46015;BME280;36844;51.898;-0.874;2023-07-22T09:13:04;99935.22;;;19.54;
46015;BME280;36844;51.898;-0.874;2023-07-22T09:15:32;99939.78;;;19.57;
46015;BME280;36844;51.898;-0.874;2023-07-22T09:17:59;99943.25;;;19.58;
46015;BME280;36844;51.898;-0.874;2023-07-22T09:20:25;99931.41;;;19.52;
46015;BME280;36844;51.898;-0.874;2023-07-22T09:22:53;99929.56;;;19.49;
46015;BME280;36844;51.898;-0.874;2023-07-22T09:25:20;99935.16;;;19.58;
46015;BME280;36844;51.898;-0.874;2023-07-22T09:27:47;99908.09;;;19.42;
46015;BME280;36844;51.898;-0.874;2023-07-22T09:32:53;99915.63;;;19.50;
46015;BME280;36844;51.898;-0.874;2023-07-22T09:35:19;99917.13;;;19.51;
46015;BME280;36844;51.898;-0.874;2023-07-22T09:37:45;99925.94;;;19.55;
46015;BME280;36844;51.898;-0.874;2023-07-22T09:40:39;99923.16;;;19.59;
46015;BME280;36844;51.898;-0.874;2023-07-22T09:43:05;99919.75;;;19.55;
46015;BME280;36844;51.898;-0.874;2023-07-22T09:45:31;99921.38;;;19.52;
46015;BME280;36844;51.898;-0.874;2023-07-22T09:47:58;99920.03;;;19.60;
46015;BME280;36844;51.898;-0.874;2023-07-22T09:50:25;99900.25;;;19.47;
46015;BME280;36844;51.898;-0.874;2023-07-22T09:52:55;99904.09;;;19.50;
46015;BME280;36844;51.898;-0.874;2023-07-22T09:55:22;99912.84;;;19.54;
46015;BME280;36844;51.898;-0.874;2023-07-22T09:57:56;99917.81;;;19.55;
46015;BME280;36844;51.898;-0.874;2023-07-22T10:00:24;99906.72;;;19.53;
46015;BME280;36844;51.898;-0.874;2023-07-22T10:02:51;99923.09;;;19.62;
46015;BME280;36844;51.898;-0.874;2023-07-22T10:05:18;99918.44;;;19.63;
46015;BME280;36844;51.898;-0.874;2023-07-22T10:07:52;99921.22;;;19.59;
46015;BME280;36844;51.898;-0.874;2023-07-22T10:10:20;99918.44;;;19.63;
46015;BME280;36844;51.898;-0.874;2023-07-22T10:12:46;99898.69;;;19.50;
46015;BME280;36844;51.898;-0.874;2023-07-22T10:15:13;99908.47;;;19.60;
46015;BME280;36844;51.898;-0.874;2023-07-22T10:17:43;99915.31;;;19.64;
46015;BME280;36844;51.898;-0.874;2023-07-22T10:20:10;99895.53;;;19.51;
46015;BME280;36844;51.898;-0.874;2023-07-22T10:22:43;99889.38;;;19.51;
46015;BME280;36844;51.898;-0.874;2023-07-22T10:25:11;99897.31;;;19.58;
46015;BME280;36844;51.898;-0.874;2023-07-22T10:27:36;99897.41;;;19.54;
46015;BME280;36844;51.898;-0.874;2023-07-22T10:30:06;99908.41;;;19.63;
46015;BME280;36844;51.898;-0.874;2023-07-22T10:32:36;99907.97;;;19.65;
46015;BME280;36844;51.898;-0.874;2023-07-22T10:35:03;99902.31;;;19.59;
46015;BME280;36844;51.898;-0.874;2023-07-22T10:37:32;99890.50;;;19.53;
46015;BME280;36844;51.898;-0.874;2023-07-22T10:40:15;99856.94;;;19.35;
46015;BME280;36844;51.898;-0.874;2023-07-22T10:42:42;99897.94;;;19.65;
46015;BME280;36844;51.898;-0.874;2023-07-22T10:45:27;99895.72;;;19.60;
46015;BME280;36844;51.898;-0.874;2023-07-22T10:50:39;99897.94;;;19.65;
46015;BME280;36844;51.898;-0.874;2023-07-22T10:53:05;99886.19;;;19.56;
46015;BME280;36844;51.898;-0.874;2023-07-22T10:55:31;99892.34;;;19.56;
46015;BME280;36844;51.898;-0.874;2023-07-22T10:58:03;99900.03;;;19.58;
46015;BME280;36844;51.898;-0.874;2023-07-22T11:00:29;99916.41;;;19.67;
46015;BME280;36844;51.898;-0.874;2023-07-22T11:03:13;99917.75;;;19.59;
46015;BME280;36844;51.898;-0.874;2023-07-22T11:05:50;99909.22;;;19.60;
46015;BME280;36844;51.898;-0.874;2023-07-22T11:08:16;99904.66;;;19.57;
46015;BME280;36844;51.898;-0.874;2023-07-22T11:10:54;99911.44;;;19.65;
46015;BME280;36844;51.898;-0.874;2023-07-22T11:13:27;99899.59;;;19.59;
46015;BME280;36844;51.898;-0.874;2023-07-22T11:15:57;99897.66;;;19.60;
46015;BME280;36844;51.898;-0.874;2023-07-22T11:18:22;99890.72;;;19.59;
46015;BME280;36844;51.898;-0.874;2023-07-22T11:20:52;99897.09;;;19.68;
46015;BME280;36844;51.898;-0.874;2023-07-22T11:23:18;99873.84;;;19.55;
46015;BME280;36844;51.898;-0.874;2023-07-22T11:25:45;99869.19;;;19.55;
46015;BME280;36844;51.898;-0.874;2023-07-22T11:28:10;99871.50;;;19.57;
46015;BME280;36844;51.898;-0.874;2023-07-22T11:30:35;99888.59;;;19.70;
46015;BME280;36844;51.898;-0.874;2023-07-22T11:33:01;99873.53;;;19.69;
46015;BME280;36844;51.898;-0.874;2023-07-22T11:35:27;99851.50;;;19.54;
46015;BME280;36844;51.898;-0.874;2023-07-22T11:38:00;99856.72;;;19.61;
46015;BME280;36844;51.898;-0.874;2023-07-22T11:40:33;99850.56;;;19.61;
46015;BME280;36844;51.898;-0.874;2023-07-22T11:43:02;99835.63;;;19.56;
46015;BME280;36844;51.898;-0.874;2023-07-22T11:45:27;99844.59;;;19.69;
46015;BME280;36844;51.898;-0.874;2023-07-22T11:47:52;99829.38;;;19.59;
46015;BME280;36844;51.898;-0.874;2023-07-22T11:50:18;99828.16;;;19.60;
46015;BME280;36844;51.898;-0.874;2023-07-22T11:52:50;99846.09;;;19.70;
46015;BME280;36844;51.898;-0.874;2023-07-22T11:55:15;99815.03;;;19.62;
46015;BME280;36844;51.898;-0.874;2023-07-22T11:57:40;99811.66;;;19.58;
46015;BME280;36844;51.898;-0.874;2023-07-22T12:00:08;99809.63;;;19.62;
46015;BME280;36844;51.898;-0.874;2023-07-22T12:02:35;99809.63;;;19.62;
46015;BME280;36844;51.898;-0.874;2023-07-22T12:05:03;99810.28;;;19.66;
46015;BME280;36844;51.898;-0.874;2023-07-22T12:07:32;99817.88;;;19.71;
46015;BME280;36844;51.898;-0.874;2023-07-22T12:09:59;99793.81;;;19.61;
46015;BME280;36844;51.898;-0.874;2023-07-22T12:12:41;99812.47;;;19.71;
46015;BME280;36844;51.898;-0.874;2023-07-22T12:15:13;99804.38;;;19.71;
46015;BME280;36844;51.898;-0.874;2023-07-22T12:17:53;99804.81;;;19.70;
46015;BME280;36844;51.898;-0.874;2023-07-22T12:20:24;99795.94;;;19.69;
46015;BME280;36844;51.898;-0.874;2023-07-22T12:22:50;99778.91;;;19.56;
46015;BME280;36844;51.898;-0.874;2023-07-22T12:25:16;99774.34;;;19.53;
46015;BME280;36844;51.898;-0.874;2023-07-22T12:27:41;99783.00;;;19.61;
46015;BME280;36844;51.898;-0.874;2023-07-22T12:30:07;99789.44;;;19.67;
46015;BME280;36844;51.898;-0.874;2023-07-22T12:32:33;99790.84;;;19.71;
46015;BME280;36844;51.898;-0.874;2023-07-22T12:34:58;99788.66;;;19.66;
46015;BME280;36844;51.898;-0.874;2023-07-22T12:37:24;99775.34;;;19.59;
46015;BME280;36844;51.898;-0.874;2023-07-22T12:39:50;99772.63;;;19.59;
46015;BME280;36844;51.898;-0.874;2023-07-22T12:42:16;99777.63;;;19.61;
46015;BME280;36844;51.898;-0.874;2023-07-22T12:44:41;99766.03;;;19.60;
46015;BME280;36844;51.898;-0.874;2023-07-22T12:47:07;99774.50;;;19.62;
46015;BME280;36844;51.898;-0.874;2023-07-22T12:49:33;99780.56;;;19.66;
46015;BME280;36844;51.898;-0.874;2023-07-22T12:51:58;99764.88;;;19.61;
46015;BME280;36844;51.898;-0.874;2023-07-22T12:54:29;99770.53;;;19.67;
46015;BME280;36844;51.898;-0.874;2023-07-22T12:56:54;99765.56;;;19.65;
46015;BME280;36844;51.898;-0.874;2023-07-22T12:59:19;99767.91;;;19.63;
46015;BME280;36844;51.898;-0.874;2023-07-22T13:01:45;99761.50;;;19.57;
46015;BME280;36844;51.898;-0.874;2023-07-22T13:04:10;99762.09;;;19.65;
46015;BME280;36844;51.898;-0.874;2023-07-22T13:06:35;99766.63;;;19.68;
46015;BME280;36844;51.898;-0.874;2023-07-22T13:09:03;99757.44;;;19.65;
46015;BME280;36844;51.898;-0.874;2023-07-22T13:11:28;99730.69;;;19.55;
46015;BME280;36844;51.898;-0.874;2023-07-22T13:13:54;99741.72;;;19.60;
46015;BME280;36844;51.898;-0.874;2023-07-22T13:16:19;99740.22;;;19.59;
46015;BME280;36844;51.898;-0.874;2023-07-22T13:18:44;99738.44;;;19.69;
46015;BME280;36844;51.898;-0.874;2023-07-22T13:21:10;99730.84;;;19.64;
46015;BME280;36844;51.898;-0.874;2023-07-22T13:23:35;99715.56;;;19.57;
46015;BME280;36844;51.898;-0.874;2023-07-22T13:26:00;99732.63;;;19.70;
46015;BME280;36844;51.898;-0.874;2023-07-22T13:28:26;99723.00;;;19.69;
46015;BME280;36844;51.898;-0.874;2023-07-22T13:30:51;99728.31;;;19.73;
46015;BME280;36844;51.898;-0.874;2023-07-22T13:33:16;99706.22;;;19.62;
46015;BME280;36844;51.898;-0.874;2023-07-22T13:35:43;99709.91;;;19.68;
46015;BME280;36844;51.898;-0.874;2023-07-22T13:38:09;99708.94;;;19.74;
46015;BME280;36844;51.898;-0.874;2023-07-22T13:40:34;99699.84;;;19.68;